createdAt,value
2018-07-01T00:00:48.174Z,64.20
2018-07-01T00:03:16.763Z,64.20
2018-07-01T00:05:50.834Z,64.30
2018-07-01T00:08:19.638Z,64.30
2018-07-01T00:10:48.418Z,64.50
2018-07-01T00:13:16.546Z,64.50
2018-07-01T00:15:45.632Z,64.80
2018-07-01T00:18:13.747Z,64.80
2018-07-01T00:20:41.986Z,64.90
2018-07-01T00:23:10.238Z,65.20
2018-07-01T00:25:39.282Z,65.50
2018-07-01T00:28:07.438Z,66.10
2018-07-01T00:30:35.679Z,66.40
2018-07-01T00:33:04.601Z,66.60
2018-07-01T00:35:33.161Z,67.00
2018-07-01T00:38:02.713Z,67.20
2018-07-01T00:40:31.999Z,67.00
2018-07-01T00:43:03.238Z,68.10
2018-07-01T00:45:32.181Z,68.40
2018-07-01T00:48:03.618Z,68.70
2018-07-01T00:50:31.773Z,69.10
2018-07-01T00:53:01.117Z,69.10
2018-07-01T00:55:30.506Z,69.20
2018-07-01T00:57:58.854Z,69.50
2018-07-01T01:00:33.701Z,69.50
2018-07-01T01:03:04.271Z,69.50
2018-07-01T01:05:33.353Z,69.80
2018-07-01T01:08:01.821Z,69.90
2018-07-01T01:10:29.885Z,70.40
2018-07-01T01:12:58.556Z,70.70
2018-07-01T01:15:26.894Z,70.90
2018-07-01T01:17:55.129Z,71.00
2018-07-01T01:20:24.091Z,71.20
2018-07-01T01:25:23.134Z,71.40
2018-07-01T01:27:51.417Z,71.40
2018-07-01T01:30:19.734Z,71.70
2018-07-01T01:32:47.877Z,72.20
2018-07-01T01:35:17.255Z,72.20
2018-07-01T01:37:46.639Z,74.50
2018-07-01T01:40:17.888Z,78.30
2018-07-01T01:42:54.790Z,81.30
2018-07-01T01:45:27.545Z,83.20
2018-07-01T01:48:03.117Z,83.60
2018-07-01T01:50:36.715Z,83.50
2018-07-01T01:54:11.512Z,83.90
2018-07-01T01:56:44.552Z,84.10
2018-07-01T01:59:19.651Z,81.50
2018-07-01T02:01:54.709Z,80.90
2018-07-01T02:04:28.324Z,84.30
2018-07-01T02:06:59.470Z,87.20
2018-07-01T02:09:30.982Z,86.80
2018-07-01T02:12:00.533Z,89.00
2018-07-01T02:14:46.833Z,88.90
2018-07-01T02:17:22.315Z,89.50
2018-07-01T02:19:50.815Z,87.30
2018-07-01T02:22:23.916Z,89.20
2018-07-01T02:24:54.845Z,90.80
2018-07-01T02:27:23.021Z,90.80
2018-07-01T02:29:51.269Z,90.90
2018-07-01T02:32:20.157Z,90.40
2018-07-01T02:34:48.286Z,90.60
2018-07-01T02:37:16.429Z,91.50
2018-07-01T02:39:45.239Z,91.40
2018-07-01T02:42:14.601Z,89.40
2018-07-01T02:44:42.658Z,87.30
2018-07-01T02:47:11.396Z,87.50
2018-07-01T02:49:40.460Z,88.10
2018-07-01T02:52:09.210Z,90.80
2018-07-01T02:54:37.933Z,91.20
2018-07-01T02:57:06.113Z,92.60
2018-07-01T02:59:34.667Z,92.80
2018-07-01T03:02:02.871Z,93.10
2018-07-01T03:04:31.599Z,93.80
2018-07-01T03:07:00.564Z,93.80
2018-07-01T03:09:29.134Z,93.70
2018-07-01T03:11:58.226Z,93.80
2018-07-01T03:14:26.467Z,93.90
2018-07-01T03:16:54.716Z,94.20
2018-07-01T03:19:22.801Z,94.40
2018-07-01T03:21:53.201Z,94.40
2018-07-01T03:24:21.234Z,94.10
2018-07-01T03:26:49.326Z,94.00
2018-07-01T03:29:17.377Z,94.00
2018-07-01T03:31:46.569Z,93.80
2018-07-01T03:34:14.660Z,93.50
2018-07-01T03:36:42.783Z,93.50
2018-07-01T03:39:11.362Z,92.90
2018-07-01T03:41:39.396Z,93.00
2018-07-01T03:44:11.295Z,93.30
2018-07-01T03:46:39.427Z,94.60
2018-07-01T03:49:07.578Z,95.20
2018-07-01T03:51:37.347Z,95.30
2018-07-01T03:54:05.467Z,95.60
2018-07-01T03:56:34.640Z,95.80
2018-07-01T03:59:02.680Z,95.90
2018-07-01T04:01:30.694Z,95.90
2018-07-01T04:03:58.836Z,95.90
2018-07-01T04:06:26.833Z,96.00
2018-07-01T04:08:54.975Z,95.90
2018-07-01T04:11:23.246Z,95.90
2018-07-01T04:13:51.670Z,95.90
2018-07-01T04:16:19.913Z,95.90
2018-07-01T04:18:49.645Z,95.90
2018-07-01T04:21:18.015Z,95.90
2018-07-01T04:23:48.077Z,96.00
2018-07-01T04:26:16.331Z,96.20
2018-07-01T04:28:45.054Z,96.10
2018-07-01T04:31:13.375Z,96.10
2018-07-01T04:33:41.810Z,96.50
2018-07-01T04:36:10.148Z,96.60
2018-07-01T04:38:38.687Z,96.50
2018-07-01T04:41:06.998Z,96.50
2018-07-01T04:43:35.616Z,96.50
2018-07-01T04:46:03.667Z,96.80
2018-07-01T04:48:32.478Z,96.80
2018-07-01T04:51:00.755Z,96.10
2018-07-01T04:53:30.797Z,94.30
2018-07-01T04:55:59.083Z,93.10
2018-07-01T04:58:27.179Z,92.10
2018-07-01T05:00:55.519Z,91.80
2018-07-01T05:03:23.587Z,91.70
2018-07-01T05:05:51.590Z,91.50
2018-07-01T05:08:19.558Z,91.20
2018-07-01T05:10:47.560Z,91.30
2018-07-01T05:13:16.032Z,91.40
2018-07-01T05:15:44.100Z,91.30
2018-07-01T05:18:12.521Z,91.30
2018-07-01T05:20:41.819Z,91.20
2018-07-01T05:23:10.111Z,91.10
2018-07-01T05:25:38.979Z,90.90
2018-07-01T05:28:08.324Z,90.90
2018-07-01T05:30:36.830Z,90.90
2018-07-01T05:33:04.936Z,90.80
2018-07-01T05:35:34.713Z,90.70
2018-07-01T05:38:02.827Z,90.50
2018-07-01T05:40:31.654Z,90.40
2018-07-01T05:43:00.929Z,90.30
2018-07-01T05:45:28.990Z,90.20
2018-07-01T05:47:57.112Z,90.30
2018-07-01T05:50:25.142Z,90.30
2018-07-01T05:52:53.822Z,90.10
2018-07-01T05:55:21.890Z,89.80
2018-07-01T05:57:50.028Z,89.90
2018-07-01T06:03:03.313Z,89.80
2018-07-01T06:05:31.954Z,89.10
2018-07-01T06:08:03.163Z,89.30
2018-07-01T06:10:31.369Z,89.20
2018-07-01T06:12:59.771Z,88.90
2018-07-01T06:15:28.131Z,88.50
2018-07-01T06:17:56.854Z,88.10
2018-07-01T06:20:25.338Z,88.00
2018-07-01T06:22:53.857Z,87.80
2018-07-01T06:25:21.998Z,87.40
2018-07-01T06:27:50.185Z,87.70
2018-07-01T06:30:18.977Z,87.00
2018-07-01T06:32:47.123Z,86.50
2018-07-01T06:35:15.226Z,85.90
2018-07-01T06:37:44.273Z,85.90
2018-07-01T06:40:12.362Z,83.70
2018-07-01T06:42:40.584Z,80.90
2018-07-01T06:45:08.773Z,78.40
2018-07-01T06:50:06.202Z,75.50
2018-07-01T06:52:34.318Z,70.00
2018-07-01T06:55:02.570Z,65.80
2018-07-01T06:57:34.637Z,62.90
2018-07-01T07:00:03.764Z,62.00
2018-07-01T07:05:01.082Z,60.10
2018-07-01T07:07:29.676Z,58.90
2018-07-01T07:09:58.012Z,59.40
2018-07-01T07:12:27.545Z,57.30
2018-07-01T07:14:56.217Z,57.20
2018-07-01T07:17:24.458Z,56.00
2018-07-01T07:19:52.822Z,55.40
2018-07-01T07:22:21.575Z,56.80
2018-07-01T07:24:49.826Z,54.50
2018-07-01T07:27:18.615Z,53.20
2018-07-01T07:29:49.275Z,51.70
2018-07-01T07:32:17.527Z,51.10
2018-07-01T07:34:51.360Z,50.70
2018-07-01T07:37:19.680Z,50.70
2018-07-01T07:39:49.818Z,51.80
2018-07-01T07:42:19.142Z,50.30
2018-07-01T07:44:50.122Z,49.20
2018-07-01T07:47:19.299Z,48.90
2018-07-01T07:49:47.685Z,48.10
2018-07-01T07:52:19.676Z,48.40
2018-07-01T07:54:48.675Z,48.30
2018-07-01T07:57:17.261Z,49.20
2018-07-01T07:59:46.142Z,49.40
2018-07-01T08:02:15.098Z,47.80
2018-07-01T08:04:43.597Z,48.60
2018-07-01T08:07:12.754Z,46.50
2018-07-01T08:09:40.774Z,46.80
2018-07-01T08:12:09.360Z,46.50
2018-07-01T08:14:37.616Z,44.90
2018-07-01T08:19:35.446Z,46.40
2018-07-01T08:22:03.776Z,45.80
2018-07-01T08:24:33.060Z,45.70
2018-07-01T08:27:01.131Z,45.10
2018-07-01T08:29:31.301Z,45.90
2018-07-01T08:32:00.099Z,46.90
2018-07-01T08:34:28.647Z,47.40
2018-07-01T08:37:11.825Z,47.30
2018-07-01T08:39:40.246Z,47.20
2018-07-01T08:42:29.471Z,46.90
2018-07-01T08:45:03.229Z,48.30
2018-07-01T08:47:34.470Z,48.50
2018-07-01T08:52:33.764Z,48.10
2018-07-01T08:55:04.261Z,46.70
2018-07-01T08:57:33.561Z,47.10
2018-07-01T09:00:03.263Z,45.40
2018-07-01T09:02:31.343Z,44.20
2018-07-01T09:04:59.438Z,45.10
2018-07-01T09:07:28.177Z,46.20
2018-07-01T09:09:57.508Z,44.80
2018-07-01T09:12:26.263Z,45.40
2018-07-01T09:17:37.174Z,45.00
2018-07-01T09:20:15.836Z,46.00
2018-07-01T09:22:44.782Z,46.70
2018-07-01T09:25:15.092Z,45.40
2018-07-01T09:27:43.777Z,45.70
2018-07-01T09:30:13.613Z,45.00
2018-07-01T09:32:43.842Z,44.50
2018-07-01T09:35:13.430Z,44.20
2018-07-01T09:37:41.716Z,43.90
2018-07-01T09:40:10.226Z,44.60
2018-07-01T09:42:38.839Z,44.30
2018-07-01T09:45:07.874Z,43.20
2018-07-01T09:47:38.624Z,43.80
2018-07-01T09:50:07.451Z,45.20
2018-07-01T09:52:36.413Z,44.00
2018-07-01T09:55:04.999Z,43.80
2018-07-01T09:57:33.378Z,44.10
2018-07-01T10:02:38.967Z,44.60
2018-07-01T10:05:09.547Z,44.00
2018-07-01T10:07:37.701Z,45.50
2018-07-01T10:10:06.244Z,47.20
2018-07-01T10:12:34.274Z,47.00
2018-07-01T10:15:03.208Z,46.90
2018-07-01T10:17:31.356Z,47.30
2018-07-01T10:19:59.937Z,47.30
2018-07-01T10:22:28.567Z,46.80
2018-07-01T10:24:59.316Z,47.40
2018-07-01T10:27:29.775Z,47.30
2018-07-01T10:29:57.843Z,47.40
2018-07-01T10:32:26.958Z,47.70
2018-07-01T10:34:59.894Z,47.10
2018-07-01T10:37:28.089Z,46.60
2018-07-01T10:39:57.734Z,46.40
2018-07-01T10:42:27.906Z,45.20
2018-07-01T10:44:56.994Z,46.00
2018-07-01T10:47:27.330Z,46.30
2018-07-01T10:49:57.353Z,45.70
2018-07-01T10:52:25.463Z,45.80
2018-07-01T10:54:56.965Z,44.50
2018-07-01T10:57:25.830Z,44.20
2018-07-01T10:59:54.665Z,43.60
2018-07-01T11:02:23.508Z,44.00
2018-07-01T11:04:56.242Z,45.20
2018-07-01T11:07:24.482Z,45.20
2018-07-01T11:09:53.998Z,45.60
2018-07-01T11:12:22.338Z,44.90
2018-07-01T11:14:53.169Z,45.00
2018-07-01T11:17:22.462Z,45.40
2018-07-01T11:19:50.507Z,45.70
2018-07-01T11:22:24.604Z,45.70
2018-07-01T11:24:53.639Z,46.10
2018-07-01T11:27:28.284Z,45.80
2018-07-01T11:29:56.686Z,45.10
2018-07-01T11:32:28.006Z,45.40
2018-07-01T11:34:57.204Z,45.40
2018-07-01T11:37:25.987Z,45.60
2018-07-01T11:39:54.190Z,45.60
2018-07-01T11:42:23.619Z,45.80
2018-07-01T11:44:52.830Z,45.10
2018-07-01T11:47:22.934Z,45.30
2018-07-01T11:49:51.667Z,45.10
2018-07-01T11:52:19.967Z,46.00
2018-07-01T11:54:48.259Z,45.80
2018-07-01T11:57:19.841Z,46.70
2018-07-01T11:59:48.061Z,46.40
2018-07-01T12:02:16.861Z,45.80
2018-07-01T12:09:24.802Z,45.80
2018-07-01T12:11:53.014Z,45.00
2018-07-01T12:14:23.287Z,45.00
2018-07-01T12:16:53.080Z,45.20
2018-07-01T12:19:21.957Z,46.10
2018-07-01T12:21:50.238Z,45.70
2018-07-01T12:24:18.578Z,45.10
2018-07-01T12:26:47.830Z,45.00
2018-07-01T12:29:17.162Z,44.40
2018-07-01T12:31:46.049Z,45.00
2018-07-01T12:34:14.971Z,45.10
2018-07-01T12:36:43.721Z,45.20
2018-07-01T12:39:12.631Z,45.60
2018-07-01T12:41:41.083Z,45.70
2018-07-01T12:44:10.705Z,45.40
2018-07-01T12:46:39.653Z,45.10
2018-07-01T12:49:08.477Z,45.10
2018-07-01T12:51:39.453Z,44.80
2018-07-01T12:54:07.702Z,44.30
2018-07-01T12:56:37.312Z,45.50
2018-07-01T12:59:16.085Z,46.10
2018-07-01T13:01:45.322Z,45.80
2018-07-01T13:04:14.518Z,46.00
2018-07-01T13:06:44.871Z,45.50
2018-07-01T13:09:17.028Z,46.00
2018-07-01T13:11:47.346Z,45.90
2018-07-01T13:14:16.605Z,44.70
2018-07-01T13:16:45.529Z,44.00
2018-07-01T13:19:19.643Z,45.20
2018-07-01T13:21:50.103Z,45.10
2018-07-01T13:24:19.558Z,45.80
2018-07-01T13:26:50.148Z,44.80
2018-07-01T13:29:22.792Z,44.90
2018-07-01T13:31:52.546Z,44.20
2018-07-01T13:34:21.357Z,43.80
2018-07-01T13:36:49.842Z,43.10
2018-07-01T13:39:19.918Z,42.60
2018-07-01T13:41:50.238Z,43.10
2018-07-01T13:44:21.225Z,43.30
2018-07-01T13:46:49.318Z,44.30
2018-07-01T13:49:18.825Z,43.90
2018-07-01T13:51:54.462Z,43.90
2018-07-01T13:54:22.783Z,43.30
2018-07-01T13:56:51.057Z,43.10
2018-07-01T13:59:20.340Z,43.80
2018-07-01T14:01:49.209Z,43.90
2018-07-01T14:04:17.740Z,43.60
2018-07-01T14:06:48.502Z,43.10
2018-07-01T14:09:16.878Z,43.30
2018-07-01T14:11:44.944Z,43.80
2018-07-01T14:14:13.395Z,44.20
2018-07-01T14:16:42.395Z,44.80
2018-07-01T14:19:11.630Z,44.60
2018-07-01T14:21:40.218Z,43.90
2018-07-01T14:24:08.747Z,43.30
2018-07-01T14:26:37.488Z,44.10
2018-07-01T14:29:06.352Z,44.00
2018-07-01T14:31:34.736Z,44.10
2018-07-01T14:34:08.715Z,43.70
2018-07-01T14:36:37.851Z,43.70
2018-07-01T14:39:13.413Z,43.80
2018-07-01T14:41:43.244Z,44.20
2018-07-01T14:44:12.727Z,43.70
2018-07-01T14:46:43.675Z,43.70
2018-07-01T14:49:18.717Z,43.60
2018-07-01T14:51:47.474Z,43.10
2018-07-01T14:54:15.882Z,43.40
2018-07-01T14:56:45.949Z,43.40
2018-07-01T14:59:16.334Z,43.50
2018-07-01T15:01:47.498Z,43.00
2018-07-01T15:04:17.262Z,42.80
2018-07-01T15:06:46.692Z,42.10
2018-07-01T15:09:16.994Z,43.00
2018-07-01T15:11:46.052Z,42.90
2018-07-01T15:14:14.430Z,42.40
2018-07-01T15:16:43.383Z,42.50
2018-07-01T15:19:13.643Z,42.40
2018-07-01T15:21:41.797Z,42.00
2018-07-01T15:24:09.995Z,42.70
2018-07-01T15:26:41.149Z,43.10
2018-07-01T15:29:09.323Z,43.30
2018-07-01T15:31:37.546Z,43.00
2018-07-01T15:34:05.634Z,42.40
2018-07-01T15:36:36.593Z,41.30
2018-07-01T15:39:08.267Z,41.70
2018-07-01T15:41:37.653Z,41.50
2018-07-01T15:44:06.029Z,41.90
2018-07-01T15:46:36.262Z,42.00
2018-07-01T15:49:04.620Z,42.00
2018-07-01T15:51:33.002Z,41.90
2018-07-01T15:54:05.753Z,42.00
2018-07-01T15:56:34.189Z,41.80
2018-07-01T15:59:02.377Z,42.30
2018-07-01T16:01:32.129Z,42.40
2018-07-01T16:04:00.654Z,41.70
2018-07-01T16:06:28.777Z,41.70
2018-07-01T16:08:57.079Z,41.50
2018-07-01T16:11:26.348Z,41.40
2018-07-01T16:13:54.476Z,41.60
2018-07-01T16:16:22.636Z,41.70
2018-07-01T16:18:51.789Z,42.50
2018-07-01T16:21:20.845Z,42.30
2018-07-01T16:23:49.346Z,42.40
2018-07-01T16:26:23.297Z,42.60
2018-07-01T16:28:58.372Z,43.00
2018-07-01T16:31:29.339Z,43.10
2018-07-01T16:33:57.666Z,43.00
2018-07-01T16:36:26.577Z,42.70
2018-07-01T16:38:57.872Z,42.50
2018-07-01T16:41:28.290Z,42.60
2018-07-01T16:43:58.458Z,42.50
2018-07-01T16:46:27.917Z,42.40
2018-07-01T16:48:58.921Z,42.00
2018-07-01T16:51:28.329Z,42.10
2018-07-01T16:53:56.677Z,41.80
2018-07-01T16:56:28.091Z,41.90
2018-07-01T16:58:56.593Z,42.20
2018-07-01T17:01:27.687Z,42.00
2018-07-01T17:03:58.167Z,42.00
2018-07-01T17:06:26.879Z,42.00
2018-07-01T17:09:03.996Z,41.80
2018-07-01T17:11:33.778Z,42.10
2018-07-01T17:14:03.660Z,42.40
2018-07-01T17:16:32.735Z,42.40
2018-07-01T17:19:01.132Z,42.40
2018-07-01T17:21:29.722Z,42.30
2018-07-01T17:23:58.004Z,42.40
2018-07-01T17:26:26.297Z,42.70
2018-07-01T17:28:56.018Z,42.90
2018-07-01T17:31:30.114Z,42.90
2018-07-01T17:33:58.966Z,42.70
2018-07-01T17:36:28.143Z,43.00
2018-07-01T17:38:56.346Z,43.00
2018-07-01T17:41:27.625Z,42.90
2018-07-01T17:43:56.286Z,43.00
2018-07-01T17:46:25.216Z,43.20
2018-07-01T17:48:53.202Z,43.30
2018-07-01T17:51:21.442Z,43.70
2018-07-01T17:53:53.969Z,43.60
2018-07-01T17:56:23.684Z,43.70
2018-07-01T17:58:52.730Z,43.70
2018-07-01T18:01:21.039Z,44.20
2018-07-01T18:03:49.641Z,44.20
2018-07-01T18:06:18.895Z,44.50
2018-07-01T18:08:51.424Z,44.50
2018-07-01T18:11:21.113Z,44.90
2018-07-01T18:13:49.907Z,44.90
2018-07-01T18:16:20.546Z,44.80
2018-07-01T18:18:49.176Z,45.20
2018-07-01T18:21:19.858Z,45.20
2018-07-01T18:26:28.446Z,44.80
2018-07-01T18:29:08.188Z,45.00
2018-07-01T18:31:29.124Z,45.10
2018-07-01T18:33:57.623Z,45.30
2018-07-01T18:36:26.307Z,45.20
2018-07-01T18:38:59.537Z,45.50
2018-07-01T18:41:28.658Z,45.60
2018-07-01T18:44:01.845Z,45.80
2018-07-01T18:46:35.153Z,45.80
2018-07-01T18:49:05.128Z,45.90
2018-07-01T18:51:33.554Z,46.20
2018-07-01T18:54:05.190Z,46.40
2018-07-01T18:56:34.934Z,46.60
2018-07-01T18:59:03.617Z,46.80
2018-07-01T19:01:32.716Z,46.90
2018-07-01T19:04:01.622Z,47.10
2018-07-01T19:06:29.984Z,47.40
2018-07-01T19:11:37.488Z,47.60
2018-07-01T19:14:06.806Z,47.70
2018-07-01T19:16:39.221Z,47.80
2018-07-01T19:19:10.158Z,47.90
2018-07-01T19:21:39.146Z,48.20
2018-07-01T19:24:09.556Z,48.20
2018-07-01T19:26:42.151Z,48.30
2018-07-01T19:29:11.887Z,48.60
2018-07-01T19:31:40.599Z,48.80
2018-07-01T19:34:10.041Z,49.00
2018-07-01T19:36:40.914Z,49.40
2018-07-01T19:39:14.153Z,49.60
2018-07-01T19:41:43.234Z,49.70
2018-07-01T19:44:12.545Z,50.00
2018-07-01T19:46:41.286Z,50.10
2018-07-01T19:49:10.665Z,50.20
2018-07-01T19:51:40.251Z,50.40
2018-07-01T19:54:08.851Z,50.50
2018-07-01T19:56:37.289Z,50.80
2018-07-01T19:59:06.865Z,50.90
2018-07-01T20:01:36.459Z,51.10
2018-07-01T20:04:05.165Z,51.30
2018-07-01T20:06:33.593Z,51.50
2018-07-01T20:09:06.151Z,51.60
2018-07-01T20:11:39.142Z,51.80
2018-07-01T20:14:08.099Z,51.80
2018-07-01T20:16:38.459Z,52.00
2018-07-01T20:19:07.576Z,52.00
2018-07-01T20:21:37.955Z,52.20
2018-07-01T20:24:06.947Z,52.30
2018-07-01T20:26:35.995Z,52.30
2018-07-01T20:29:05.394Z,52.50
2018-07-01T20:31:35.886Z,52.40
2018-07-01T20:34:05.305Z,52.50
2018-07-01T20:36:35.558Z,52.50
2018-07-01T20:39:22.088Z,52.70
2018-07-01T20:41:51.637Z,52.80
2018-07-01T20:44:20.538Z,53.10
2018-07-01T20:46:53.550Z,53.20
2018-07-01T20:49:23.707Z,53.40
2018-07-01T20:51:52.726Z,53.60
2018-07-01T20:54:21.723Z,53.70
2018-07-01T20:56:50.606Z,53.80
2018-07-01T20:59:19.938Z,54.10
2018-07-01T21:01:49.163Z,54.30
2018-07-01T21:04:17.323Z,54.50
2018-07-01T21:06:46.985Z,54.40
2018-07-01T21:09:17.329Z,54.40
2018-07-01T21:11:47.239Z,54.80
2018-07-01T21:14:15.645Z,55.20
2018-07-01T21:16:43.954Z,55.40
2018-07-01T21:19:14.060Z,56.10
2018-07-01T21:21:42.437Z,56.40
2018-07-01T21:24:12.093Z,56.40
2018-07-01T21:26:40.780Z,56.50
2018-07-01T21:29:09.006Z,56.50
2018-07-01T21:31:37.328Z,56.50
2018-07-01T21:34:09.023Z,56.40
2018-07-01T21:36:38.628Z,56.30
2018-07-01T21:39:12.648Z,56.50
2018-07-01T21:41:42.818Z,56.50
2018-07-01T21:44:11.232Z,56.60
2018-07-01T21:46:40.017Z,56.70
2018-07-01T21:49:10.545Z,56.80
2018-07-01T21:51:38.711Z,57.10
2018-07-01T21:54:08.592Z,57.20
2018-07-01T21:56:54.186Z,57.50
2018-07-01T21:59:22.284Z,57.80
2018-07-01T22:01:51.036Z,58.00
2018-07-01T22:04:19.300Z,58.10
2018-07-01T22:06:53.846Z,58.30
2018-07-01T22:09:24.431Z,58.50
2018-07-01T22:12:06.187Z,58.60
2018-07-01T22:16:47.342Z,58.80
2018-07-01T22:19:16.919Z,58.90
2018-07-01T22:21:46.767Z,59.30
2018-07-01T22:24:14.962Z,59.40
2018-07-01T22:26:43.585Z,59.60
2018-07-01T22:29:14.026Z,59.90
2018-07-01T22:31:42.102Z,60.00
2018-07-01T22:34:11.502Z,60.30
2018-07-01T22:36:40.967Z,60.50
2018-07-01T22:39:13.586Z,60.60
2018-07-01T22:41:44.466Z,61.00
2018-07-01T22:44:12.810Z,61.40
2018-07-01T22:46:41.948Z,61.90
2018-07-01T22:49:10.023Z,61.90
2018-07-01T22:51:39.136Z,62.30
2018-07-01T22:54:07.427Z,62.40
2018-07-01T22:56:36.850Z,62.30
2018-07-01T22:59:05.514Z,62.50
2018-07-01T23:01:35.007Z,62.60
2018-07-01T23:04:03.394Z,62.80
2018-07-01T23:06:31.681Z,63.10
2018-07-01T23:09:01.985Z,63.40
2018-07-01T23:11:31.385Z,63.50
2018-07-01T23:13:59.425Z,63.60
2018-07-01T23:16:31.217Z,63.80
2018-07-01T23:19:00.885Z,63.90
2018-07-01T23:21:29.479Z,64.30
2018-07-01T23:23:57.611Z,64.60
2018-07-01T23:26:25.694Z,64.90
2018-07-01T23:28:54.269Z,64.70
2018-07-01T23:31:22.359Z,65.10
2018-07-01T23:33:50.921Z,64.80
2018-07-01T23:36:19.648Z,65.20
2018-07-01T23:38:49.229Z,65.10
2018-07-01T23:41:17.829Z,65.70
2018-07-01T23:43:48.013Z,65.80
2018-07-01T23:46:18.085Z,66.90
2018-07-01T23:48:47.299Z,67.00
2018-07-01T23:51:16.193Z,67.10
2018-07-01T23:53:45.369Z,68.20
2018-07-01T23:56:14.946Z,70.50
2018-07-01T23:58:43.430Z,75.00
